Pagrindinis puslapis
METAR-TAF:

METAR-TAF

Oro uostai :

Vadsė, Norvegija

platuma: 70-04N, ilguma: 029-51E, Aukštis: 3 m

Dabartinis oras

Ataskaita buvo paskelbta 2 valandos ir 25 minutes, ne 15:20 UTC
Vėjas 7 kt iš Pietryčių
Temperatūra -4°C
Drėgmė 93%
Slėgis 982 hPa
Išsisklaidę debesys ne aukštis 900 ft
Su prošvaistėmis ne aukštis 1200 ft

METAR: ENVD 071520Z 14007KT 9000-SN SCT009 BKN012 M04/M05 Q0982

Laikas: 18:45 (17:45 UTC)

Prognozė

Ataskaita buvo paskelbta 4 valandos ir 1 minutes, ne 13:44 UTC
Prognozė galioja nuo 07 metu 13 UTC su 07 metu 15 UTC
Vėjas 8 kt iš Rytų/Pietryčių
Matomumas 10 km arba daugiau
Išsisklaidę debesys ne aukštis 600 ft
Su prošvaistėmis ne aukštis 800 ft
sniegas
Laikinai
nuo 07 metu 13 UTC su 07 metu 15 UTC
Su prošvaistėmis ne aukštis 1200 ft

TAF: ENVD 071344Z 0713/0715 12008KT 9999 -SN SCT006 BKN008 TEMPO 0713/0715 BKN012

Orai ataskaitas ir orų prognozės (METAR, TAF).

turimą stotys yra geltonos ir raudonos taškus žemėlapyje.

Perkelti pele per norėdami pamatyti stoties vardą.

Tada spustelėkite, norėdami matyti oro stebėjimo ir prognozės.

Norėdami pakeisti žemėlapį: spustelėkite ant žalios mygtukų su juodo kryžiaus žemyn,; žalią mygtuką su brūkšneliu, jei norite nutolinti; arba žalių rodyklių gretimoms žemėlapius.


METAR-TAF: